createdAt,value
2018-01-15T00:01:39.120Z,58.80
2018-01-15T00:04:08.069Z,58.70
2018-01-15T00:06:37.030Z,58.80
2018-01-15T00:09:05.978Z,58.80
2018-01-15T00:11:34.950Z,58.80
2018-01-15T00:14:04.671Z,58.90
2018-01-15T00:16:34.418Z,59.00
2018-01-15T00:19:03.366Z,59.70
2018-01-15T00:21:33.231Z,59.40
2018-01-15T00:24:02.177Z,59.40
2018-01-15T00:26:31.899Z,59.80
2018-01-15T00:29:01.627Z,59.80
2018-01-15T00:31:30.574Z,59.70
2018-01-15T00:33:59.551Z,60.00
2018-01-15T00:36:28.498Z,60.00
2018-01-15T00:38:57.478Z,60.10
2018-01-15T00:41:26.418Z,60.40
2018-01-15T00:43:55.386Z,60.40
2018-01-15T00:46:24.347Z,60.30
2018-01-15T00:48:54.074Z,60.00
2018-01-15T00:51:23.027Z,59.90
2018-01-15T00:53:52.002Z,60.00
2018-01-15T00:56:20.959Z,60.70
2018-01-15T00:58:49.914Z,60.00
2018-01-15T01:01:19.642Z,60.00
2018-01-15T01:03:48.586Z,59.90
2018-01-15T01:06:17.550Z,60.00
2018-01-15T01:08:46.514Z,60.00
2018-01-15T01:11:15.483Z,59.80
2018-01-15T01:13:45.203Z,60.40
2018-01-15T01:16:14.937Z,59.80
2018-01-15T01:18:43.894Z,59.80
2018-01-15T01:21:12.859Z,59.80
2018-01-15T01:23:41.809Z,59.90
2018-01-15T01:26:10.778Z,60.00
2018-01-15T01:28:40.493Z,59.80
2018-01-15T01:31:10.338Z,59.60
2018-01-15T01:33:39.290Z,59.60
2018-01-15T01:36:09.010Z,59.80
2018-01-15T01:38:38.755Z,59.80
2018-01-15T01:41:07.704Z,59.70
2018-01-15T01:43:37.438Z,59.70
2018-01-15T01:46:06.385Z,59.70
2018-01-15T01:48:35.346Z,59.70
2018-01-15T01:51:04.305Z,59.80
2018-01-15T01:53:33.281Z,60.60
2018-01-15T01:56:02.996Z,60.00
2018-01-15T01:58:32.736Z,59.90
2018-01-15T02:01:01.678Z,59.90
2018-01-15T02:03:30.663Z,59.70
2018-01-15T02:05:59.610Z,59.80
2018-01-15T02:08:28.557Z,60.00
2018-01-15T02:10:57.536Z,60.20
2018-01-15T02:13:26.482Z,60.30
2018-01-15T02:15:55.445Z,60.20
2018-01-15T02:18:25.271Z,60.20
2018-01-15T02:20:54.350Z,60.10
2018-01-15T02:23:23.275Z,60.10
2018-01-15T02:25:52.247Z,60.00
2018-01-15T02:28:21.967Z,59.60
2018-01-15T02:30:50.943Z,59.50
2018-01-15T02:33:21.592Z,59.10
2018-01-15T02:35:50.558Z,59.10
2018-01-15T02:38:20.276Z,58.60
2018-01-15T02:40:50.052Z,58.60
2018-01-15T02:43:18.999Z,58.60
2018-01-15T02:45:47.946Z,58.30
2018-01-15T02:48:16.914Z,58.40
2018-01-15T02:50:45.863Z,58.20
2018-01-15T02:53:15.606Z,58.30
2018-01-15T02:55:44.558Z,58.30
2018-01-15T02:58:14.302Z,58.30
2018-01-15T03:00:43.242Z,58.30
2018-01-15T03:03:12.209Z,58.30
2018-01-15T03:05:41.158Z,58.40
2018-01-15T03:08:10.122Z,58.30
2018-01-15T03:10:39.834Z,58.00
2018-01-15T03:13:09.570Z,58.00
2018-01-15T03:15:38.514Z,58.00
2018-01-15T03:18:07.482Z,57.90
2018-01-15T03:20:36.442Z,57.90
2018-01-15T03:23:05.418Z,58.10
2018-01-15T03:25:35.130Z,58.30
2018-01-15T03:28:04.890Z,58.30
2018-01-15T03:30:33.835Z,58.40
2018-01-15T03:33:03.547Z,58.10
2018-01-15T03:35:33.283Z,58.10
2018-01-15T03:38:02.226Z,58.00
2018-01-15T03:40:31.195Z,58.00
2018-01-15T03:43:00.140Z,58.70
2018-01-15T03:45:29.106Z,57.90
2018-01-15T03:47:58.047Z,57.70
2018-01-15T03:50:27.016Z,57.80
2018-01-15T03:52:55.963Z,58.10
2018-01-15T03:55:24.962Z,57.90
2018-01-15T03:57:53.910Z,57.80
2018-01-15T04:00:22.866Z,58.10
2018-01-15T04:02:52.598Z,58.40
2018-01-15T04:05:21.548Z,58.30
2018-01-15T04:07:50.519Z,58.40
2018-01-15T04:10:19.479Z,58.30
2018-01-15T04:12:48.446Z,58.30
2018-01-15T04:15:18.172Z,58.50
2018-01-15T04:17:47.144Z,58.50
2018-01-15T04:20:16.854Z,58.70
2018-01-15T04:22:46.582Z,58.70
2018-01-15T04:25:16.499Z,58.70
2018-01-15T04:27:47.458Z,58.70
2018-01-15T04:30:16.406Z,58.50
2018-01-15T04:32:46.142Z,58.40
2018-01-15T04:35:15.090Z,58.40
2018-01-15T04:37:44.054Z,58.40
2018-01-15T04:40:13.003Z,58.40
2018-01-15T04:42:42.741Z,58.50
2018-01-15T04:45:11.687Z,58.50
2018-01-15T04:47:40.646Z,58.60
2018-01-15T04:50:09.618Z,58.70
2018-01-15T04:52:38.567Z,59.00
2018-01-15T04:55:08.302Z,59.10
2018-01-15T04:57:37.258Z,58.90
2018-01-15T05:00:06.229Z,58.80
2018-01-15T05:02:35.179Z,58.70
2018-01-15T05:05:04.138Z,58.60
2018-01-15T05:07:33.091Z,58.50
2018-01-15T05:10:02.266Z,58.40
2018-01-15T05:12:31.218Z,58.30
2018-01-15T05:15:00.166Z,58.20
2018-01-15T05:17:31.111Z,58.00
2018-01-15T05:20:00.048Z,57.80
2018-01-15T05:22:29.779Z,58.20
2018-01-15T05:24:58.747Z,57.70
2018-01-15T05:27:28.454Z,58.10
2018-01-15T05:29:58.354Z,57.40
2018-01-15T05:32:27.299Z,57.30
2018-01-15T05:34:56.247Z,57.50
2018-01-15T05:37:25.211Z,57.50
2018-01-15T05:39:54.181Z,57.50
2018-01-15T05:42:23.162Z,57.60
2018-01-15T05:44:52.111Z,57.60
2018-01-15T05:47:21.071Z,57.60
2018-01-15T05:49:50.014Z,57.50
2018-01-15T05:52:19.778Z,57.50
2018-01-15T05:54:48.724Z,57.50
2018-01-15T05:57:18.443Z,57.60
2018-01-15T05:59:52.068Z,57.50
2018-01-15T06:02:21.006Z,57.60
2018-01-15T06:04:49.978Z,57.50
2018-01-15T06:07:18.926Z,57.60
2018-01-15T06:09:47.890Z,57.60
2018-01-15T06:12:17.601Z,57.80
2018-01-15T06:14:47.338Z,57.80
2018-01-15T06:17:16.282Z,57.80
2018-01-15T06:19:45.250Z,57.80
2018-01-15T06:22:14.206Z,57.80
2018-01-15T06:24:43.205Z,57.90
2018-01-15T06:27:19.652Z,58.00
2018-01-15T06:30:09.723Z,58.20
2018-01-15T06:40:08.683Z,58.60
2018-01-15T06:42:44.185Z,58.60
2018-01-15T06:45:13.139Z,58.50
2018-01-15T06:47:42.103Z,58.50
2018-01-15T06:50:11.822Z,58.70
2018-01-15T06:52:41.555Z,58.70
2018-01-15T06:55:10.503Z,58.70
2018-01-15T06:57:39.466Z,58.80
2018-01-15T07:00:08.415Z,59.50
2018-01-15T07:02:37.386Z,58.80
2018-01-15T07:05:06.331Z,58.60
2018-01-15T07:07:35.665Z,58.60
2018-01-15T07:10:04.618Z,58.50
2018-01-15T07:12:33.571Z,58.50
2018-01-15T07:15:03.295Z,58.60
2018-01-15T07:17:32.379Z,59.30
2018-01-15T07:20:02.094Z,58.50
2018-01-15T07:22:31.043Z,58.50
2018-01-15T07:25:00.008Z,58.40
2018-01-15T07:27:28.971Z,58.30
2018-01-15T07:29:57.943Z,58.20
2018-01-15T07:32:26.886Z,58.00
2018-01-15T07:34:55.855Z,58.00
2018-01-15T07:37:24.808Z,58.00
2018-01-15T07:39:53.930Z,58.00
2018-01-15T07:42:23.652Z,57.80
2018-01-15T07:44:52.618Z,57.80
2018-01-15T07:47:22.342Z,57.90
2018-01-15T07:49:52.286Z,57.80
2018-01-15T07:52:21.230Z,57.80
2018-01-15T07:54:50.966Z,57.90
2018-01-15T07:57:19.919Z,57.80
2018-01-15T07:59:48.886Z,57.80
2018-01-15T08:02:17.843Z,57.80
2018-01-15T08:04:46.815Z,57.70
2018-01-15T08:07:16.540Z,57.50
2018-01-15T08:09:45.507Z,57.60
2018-01-15T08:12:14.465Z,57.50
2018-01-15T08:14:43.571Z,57.40
2018-01-15T08:17:12.527Z,57.40
2018-01-15T08:19:41.479Z,57.30
2018-01-15T08:22:10.438Z,57.30
2018-01-15T08:24:39.419Z,57.50
2018-01-15T08:27:08.387Z,57.40
2018-01-15T08:29:37.336Z,57.40
2018-01-15T08:32:06.310Z,57.20
2018-01-15T08:34:37.246Z,57.10
2018-01-15T08:37:06.187Z,57.00
2018-01-15T08:39:35.910Z,56.70
2018-01-15T08:42:04.903Z,56.60
2018-01-15T08:44:33.860Z,56.70
2018-01-15T08:47:02.811Z,56.70
2018-01-15T08:49:31.786Z,56.50
2018-01-15T08:52:00.746Z,56.10
2018-01-15T08:54:30.483Z,55.00
2018-01-15T08:56:59.437Z,54.80
2018-01-15T08:59:28.398Z,54.70
2018-01-15T09:01:57.358Z,54.40
2018-01-15T09:04:26.329Z,54.30
2018-01-15T09:06:56.040Z,54.10
2018-01-15T09:09:25.787Z,54.10
2018-01-15T09:11:54.739Z,54.10
2018-01-15T09:14:24.475Z,53.70
2018-01-15T09:16:53.418Z,53.70
2018-01-15T09:19:22.390Z,52.90
2018-01-15T09:21:51.347Z,53.00
2018-01-15T09:24:26.104Z,53.10
2018-01-15T09:26:55.058Z,52.80
2018-01-15T09:29:24.031Z,52.70
2018-01-15T09:31:52.977Z,52.10
2018-01-15T09:34:22.119Z,52.10
2018-01-15T09:36:51.842Z,51.90
2018-01-15T09:39:21.589Z,51.90
2018-01-15T09:41:50.562Z,51.90
2018-01-15T09:44:19.510Z,51.40
2018-01-15T09:46:48.487Z,51.10
2018-01-15T09:49:17.453Z,49.50
2018-01-15T09:51:46.426Z,48.20
2018-01-15T09:54:15.388Z,48.00
2018-01-15T09:56:45.131Z,46.50
2018-01-15T09:59:14.086Z,46.50
2018-01-15T10:01:43.070Z,45.10
2018-01-15T10:04:12.033Z,44.30
2018-01-15T10:06:41.011Z,42.90
2018-01-15T10:09:09.975Z,42.60
2018-01-15T10:11:38.950Z,41.10
2018-01-15T10:14:08.680Z,39.50
2018-01-15T10:16:37.683Z,39.50
2018-01-15T10:19:06.658Z,39.50
2018-01-15T10:21:35.628Z,38.90
2018-01-15T10:24:04.614Z,38.20
2018-01-15T10:26:33.582Z,38.40
2018-01-15T10:29:02.570Z,36.70
2018-01-15T10:31:32.472Z,35.40
2018-01-15T10:34:01.454Z,34.30
2018-01-15T10:36:30.422Z,33.10
2018-01-15T10:38:59.407Z,32.90
2018-01-15T10:41:29.145Z,34.60
2018-01-15T10:43:58.127Z,34.60
2018-01-15T10:46:27.895Z,31.90
2018-01-15T10:48:56.987Z,31.90
2018-01-15T10:51:25.952Z,30.40
2018-01-15T10:54:04.652Z,28.60
2018-01-15T10:56:33.609Z,26.30
2018-01-15T10:59:02.617Z,25.20
2018-01-15T11:01:32.343Z,24.40
2018-01-15T11:04:01.302Z,24.40
2018-01-15T11:06:30.287Z,24.40
2018-01-15T11:08:59.260Z,25.00
2018-01-15T11:11:28.242Z,26.20
2018-01-15T11:13:57.210Z,27.20
2018-01-15T11:16:26.196Z,28.70
2018-01-15T11:18:55.150Z,30.10
2018-01-15T11:21:24.130Z,31.40
2018-01-15T11:23:53.107Z,32.40
2018-01-15T11:26:22.087Z,33.10
2018-01-15T11:28:51.047Z,34.20
2018-01-15T11:31:20.038Z,35.20
2018-01-15T11:33:49.762Z,37.20
2018-01-15T11:36:18.752Z,37.20
2018-01-15T11:38:47.743Z,37.90
2018-01-15T11:41:16.717Z,38.50
2018-01-15T11:43:46.456Z,39.60
2018-01-15T11:46:15.409Z,39.60
2018-01-15T11:48:44.383Z,40.10
2018-01-15T11:51:13.355Z,40.00
2018-01-15T11:53:42.330Z,40.90
2018-01-15T11:56:11.296Z,41.10
2018-01-15T11:58:41.047Z,42.20
2018-01-15T12:01:10.013Z,42.20
2018-01-15T12:03:39.008Z,42.60
2018-01-15T12:06:07.966Z,42.80
2018-01-15T12:08:37.703Z,43.20
2018-01-15T12:11:06.687Z,43.10
2018-01-15T12:13:36.416Z,43.80
2018-01-15T12:16:05.386Z,43.90
2018-01-15T12:18:35.120Z,44.20
2018-01-15T12:21:04.140Z,44.10
2018-01-15T12:23:33.133Z,44.40
2018-01-15T12:26:02.326Z,44.50
2018-01-15T12:28:31.375Z,44.60
2018-01-15T12:31:01.223Z,44.50
2018-01-15T12:33:30.226Z,44.50
2018-01-15T12:35:59.191Z,44.30
2018-01-15T12:38:28.177Z,44.20
2018-01-15T12:40:57.156Z,44.30
2018-01-15T12:43:28.520Z,44.40
2018-01-15T12:45:57.486Z,44.40
2018-01-15T12:48:27.246Z,44.70
2018-01-15T12:50:56.305Z,44.70
2018-01-15T12:53:25.442Z,44.90
2018-01-15T12:55:54.576Z,45.00
2018-01-15T12:58:24.437Z,45.20
2018-01-15T13:00:53.600Z,45.20
2018-01-15T13:03:23.458Z,45.60
2018-01-15T13:05:52.557Z,45.50
2018-01-15T13:11:39.926Z,46.20
2018-01-15T13:14:08.962Z,46.10
2018-01-15T13:16:38.022Z,46.40
2018-01-15T13:19:08.011Z,46.50
2018-01-15T13:21:37.062Z,46.50
2018-01-15T13:24:06.137Z,46.80
2018-01-15T13:26:35.200Z,46.80
2018-01-15T13:29:04.256Z,47.00
2018-01-15T13:31:34.556Z,47.20
2018-01-15T13:34:05.106Z,47.70
2018-01-15T13:36:34.401Z,47.70
2018-01-15T13:39:03.573Z,47.90
2018-01-15T13:41:33.364Z,48.00
2018-01-15T13:44:04.726Z,48.00
2018-01-15T13:46:33.737Z,47.90
2018-01-15T13:49:02.821Z,47.90
2018-01-15T13:51:32.711Z,47.70
2018-01-15T13:54:01.661Z,47.60
2018-01-15T13:56:30.639Z,47.60
2018-01-15T13:58:59.590Z,47.50
2018-01-15T14:01:30.480Z,47.50
2018-01-15T14:03:59.394Z,47.80
2018-01-15T14:06:28.376Z,47.60
2018-01-15T14:08:57.327Z,47.60
2018-01-15T14:11:27.190Z,47.40
2018-01-15T14:13:56.142Z,47.30
2018-01-15T14:16:25.863Z,47.40
2018-01-15T14:18:54.833Z,47.30
2018-01-15T14:21:24.026Z,47.40
2018-01-15T14:23:53.795Z,47.40
2018-01-15T14:26:23.365Z,47.30
2018-01-15T14:28:53.071Z,47.60
2018-01-15T14:31:22.954Z,47.60
2018-01-15T14:33:51.899Z,47.60
2018-01-15T14:36:20.851Z,47.70
2018-01-15T14:38:50.610Z,48.40
2018-01-15T14:41:19.598Z,48.10
2018-01-15T14:43:48.570Z,48.30
2018-01-15T14:46:17.535Z,48.70
2018-01-15T14:48:46.505Z,48.80
2018-01-15T14:51:15.459Z,48.90
2018-01-15T14:53:44.534Z,49.00
2018-01-15T14:56:14.335Z,49.50
2018-01-15T14:58:43.311Z,49.50
2018-01-15T15:01:12.272Z,49.70
2018-01-15T15:03:41.231Z,49.90
2018-01-15T15:06:10.194Z,50.20
2018-01-15T15:08:39.155Z,50.30
2018-01-15T15:11:08.159Z,50.20
2018-01-15T15:13:37.131Z,50.30
2018-01-15T15:16:06.128Z,50.40
2018-01-15T15:18:35.110Z,50.40
2018-01-15T15:21:04.083Z,50.40
2018-01-15T15:23:33.100Z,50.10
2018-01-15T15:26:02.061Z,50.10
2018-01-15T15:28:31.030Z,50.10
2018-01-15T15:31:00.076Z,50.00
2018-01-15T15:33:29.035Z,50.00
2018-01-15T15:35:57.991Z,49.80
2018-01-15T15:38:26.970Z,49.80
2018-01-15T15:40:55.926Z,49.70
2018-01-15T15:43:24.892Z,49.60
2018-01-15T15:45:54.614Z,49.50
2018-01-15T15:48:23.704Z,49.50
2018-01-15T15:50:53.422Z,49.20
2018-01-15T15:53:22.376Z,49.20
2018-01-15T15:55:51.419Z,49.30
2018-01-15T15:58:20.370Z,49.30
2018-01-15T16:00:49.337Z,49.40
2018-01-15T16:03:18.281Z,49.40
2018-01-15T16:05:47.273Z,49.30
2018-01-15T16:08:17.021Z,49.50
2018-01-15T16:10:46.017Z,49.40
2018-01-15T16:13:14.982Z,49.60
2018-01-15T16:15:43.950Z,49.90
2018-01-15T16:18:13.678Z,50.40
2018-01-15T16:20:42.682Z,50.40
2018-01-15T16:23:11.630Z,50.60
2018-01-15T16:25:41.395Z,51.00
2018-01-15T16:28:10.370Z,51.00
2018-01-15T16:30:39.403Z,51.20
2018-01-15T16:33:08.378Z,51.30
2018-01-15T16:35:37.345Z,51.30
2018-01-15T16:38:07.310Z,51.40
2018-01-15T16:40:36.278Z,51.30
2018-01-15T16:43:05.370Z,51.50
2018-01-15T16:45:34.336Z,51.60
2018-01-15T16:48:03.328Z,51.50
2018-01-15T16:50:32.319Z,51.60
2018-01-15T16:53:01.533Z,51.40
2018-01-15T16:55:30.522Z,51.20
2018-01-15T16:57:59.485Z,51.00
2018-01-15T17:00:28.557Z,50.80
2018-01-15T17:02:57.489Z,50.50
2018-01-15T17:05:27.460Z,50.40
2018-01-15T17:07:56.415Z,50.10
2018-01-15T17:10:26.306Z,49.80
2018-01-15T17:13:01.462Z,49.60
2018-01-15T17:15:33.133Z,49.70
2018-01-15T17:18:13.965Z,49.70
2018-01-15T17:20:47.122Z,49.70
2018-01-15T17:23:16.993Z,49.40
2018-01-15T17:25:45.954Z,49.30
2018-01-15T17:28:16.626Z,49.30
2018-01-15T17:30:45.606Z,49.30
2018-01-15T17:33:19.726Z,49.30
2018-01-15T17:35:48.675Z,49.30
2018-01-15T17:38:17.642Z,49.30
2018-01-15T17:40:46.686Z,49.20
2018-01-15T17:43:16.610Z,49.40
2018-01-15T17:45:45.571Z,49.20
2018-01-15T17:48:15.308Z,49.30
2018-01-15T17:50:44.262Z,49.20
2018-01-15T17:53:14.003Z,49.30
2018-01-15T17:55:42.950Z,49.20
2018-01-15T17:58:11.918Z,49.40
2018-01-15T18:00:40.885Z,49.20
2018-01-15T18:03:09.854Z,49.20
2018-01-15T18:05:39.086Z,49.20
2018-01-15T18:08:08.133Z,49.20
2018-01-15T18:10:37.977Z,49.30
2018-01-15T18:13:10.307Z,49.30
2018-01-15T18:15:40.066Z,49.10
2018-01-15T18:18:09.010Z,49.20
2018-01-15T18:20:37.973Z,49.20
2018-01-15T18:23:06.929Z,49.10
2018-01-15T18:25:35.894Z,49.20
2018-01-15T18:28:05.607Z,49.10
2018-01-15T18:30:35.343Z,49.00
2018-01-15T18:33:04.294Z,49.00
2018-01-15T18:35:34.179Z,49.10
2018-01-15T18:38:03.142Z,49.20
2018-01-15T18:40:32.109Z,49.20
2018-01-15T18:43:01.833Z,49.40
2018-01-15T18:45:31.736Z,49.50
2018-01-15T18:48:01.459Z,49.60
2018-01-15T18:50:31.194Z,49.70
2018-01-15T18:53:00.215Z,49.70
2018-01-15T18:55:29.154Z,49.70
2018-01-15T18:57:58.126Z,49.60
2018-01-15T19:00:27.852Z,49.80
2018-01-15T19:02:57.587Z,49.80
2018-01-15T19:05:26.537Z,49.70
2018-01-15T19:07:56.279Z,49.80
2018-01-15T19:10:25.235Z,49.80
2018-01-15T19:12:54.971Z,49.90
2018-01-15T19:15:23.926Z,49.90
2018-01-15T19:17:52.898Z,50.00
2018-01-15T19:20:22.788Z,50.10
2018-01-15T19:22:51.774Z,50.50
2018-01-15T19:25:20.731Z,50.50
2018-01-15T19:27:49.673Z,50.70
2018-01-15T19:30:18.650Z,51.10
2018-01-15T19:32:47.607Z,51.30
2018-01-15T19:35:18.647Z,51.70
2018-01-15T19:37:48.911Z,52.10
2018-01-15T19:40:17.883Z,51.90
2018-01-15T19:42:51.042Z,52.80
2018-01-15T19:48:36.903Z,53.50
2018-01-15T19:51:11.313Z,53.40
2018-01-15T19:56:54.482Z,54.20
2018-01-15T19:59:30.853Z,55.00
2018-01-15T20:02:06.035Z,54.90
2018-01-15T20:04:40.686Z,55.20
2018-01-15T20:07:17.114Z,55.60
2018-01-15T20:09:51.591Z,55.90
2018-01-15T20:12:22.238Z,56.40
2018-01-15T20:14:51.438Z,56.90
2018-01-15T20:17:21.058Z,57.40
2018-01-15T20:19:50.018Z,57.70
2018-01-15T20:22:19.203Z,58.40
2018-01-15T20:24:48.150Z,58.80
2018-01-15T20:27:17.271Z,59.20
2018-01-15T20:29:46.302Z,59.80
2018-01-15T20:32:15.525Z,59.90
2018-01-15T20:34:46.114Z,60.70
2018-01-15T20:37:15.252Z,61.00
2018-01-15T20:39:44.344Z,61.30
2018-01-15T20:42:19.930Z,62.30
2018-01-15T20:44:50.506Z,62.70
2018-01-15T20:47:20.459Z,62.60
2018-01-15T20:49:50.312Z,62.80
2018-01-15T20:52:19.492Z,62.90
2018-01-15T20:54:49.648Z,62.70
2018-01-15T20:57:20.188Z,62.70
2018-01-15T20:59:51.473Z,63.10
2018-01-15T21:02:20.525Z,62.90
2018-01-15T21:04:49.575Z,63.50
2018-01-15T21:07:19.303Z,63.80
2018-01-15T21:09:48.247Z,63.80
2018-01-15T21:12:17.215Z,63.90
2018-01-15T21:14:47.090Z,63.90
2018-01-15T21:17:16.060Z,63.80
2018-01-15T21:19:45.791Z,64.60
2018-01-15T21:22:14.878Z,63.90
2018-01-15T21:24:43.827Z,63.90
2018-01-15T21:27:12.774Z,63.90
2018-01-15T21:29:41.752Z,63.80
2018-01-15T21:32:10.698Z,63.80
2018-01-15T21:34:39.671Z,64.00
2018-01-15T21:37:08.620Z,64.00
2018-01-15T21:39:38.358Z,63.80
2018-01-15T21:42:07.319Z,63.80
2018-01-15T21:44:37.051Z,64.00
2018-01-15T21:47:06.002Z,64.00
2018-01-15T21:49:34.974Z,64.00
2018-01-15T21:52:03.935Z,64.00
2018-01-15T21:54:34.879Z,64.20
2018-01-15T21:57:03.823Z,64.30
2018-01-15T21:59:34.012Z,64.90
2018-01-15T22:02:02.954Z,64.80
2018-01-15T22:04:32.910Z,65.00
2018-01-15T22:07:01.867Z,65.00
2018-01-15T22:09:36.770Z,65.10
2018-01-15T22:12:05.711Z,65.00
2018-01-15T22:14:34.651Z,65.30
2018-01-15T22:17:03.627Z,66.00
2018-01-15T22:19:32.590Z,66.40
2018-01-15T22:22:01.551Z,66.60
2018-01-15T22:24:30.495Z,66.50
2018-01-15T22:26:59.458Z,66.40
2018-01-15T22:29:40.946Z,66.70
2018-01-15T22:32:09.902Z,66.80
2018-01-15T22:34:39.614Z,66.70
2018-01-15T22:37:09.348Z,66.60
2018-01-15T22:39:38.287Z,66.60
2018-01-15T22:42:07.249Z,66.40
2018-01-15T22:44:36.190Z,66.00
2018-01-15T22:47:05.923Z,65.80
2018-01-15T22:49:34.864Z,65.70
2018-01-15T22:52:03.814Z,65.70
2018-01-15T22:54:42.814Z,65.60
2018-01-15T22:57:13.278Z,65.30
2018-01-15T22:59:42.218Z,65.30
2018-01-15T23:02:11.182Z,65.30
2018-01-15T23:04:40.122Z,65.40
2018-01-15T23:07:09.855Z,65.20
2018-01-15T23:09:38.800Z,65.20
2018-01-15T23:12:07.770Z,65.20
2018-01-15T23:14:36.714Z,65.50
2018-01-15T23:17:06.443Z,65.80
2018-01-15T23:19:35.392Z,65.80
2018-01-15T23:22:04.350Z,65.80
2018-01-15T23:24:33.300Z,65.80
2018-01-15T23:27:03.041Z,65.70
2018-01-15T23:29:31.983Z,65.70
2018-01-15T23:32:01.695Z,65.80
2018-01-15T23:34:31.425Z,65.80
2018-01-15T23:37:00.367Z,65.70
2018-01-15T23:39:29.337Z,65.90
2018-01-15T23:42:04.165Z,65.60
2018-01-15T23:44:33.135Z,65.80
2018-01-15T23:47:02.074Z,65.80
2018-01-15T23:49:31.036Z,66.90
2018-01-15T23:51:59.974Z,66.10
2018-01-15T23:54:33.942Z,66.30
2018-01-15T23:57:02.898Z,66.20
2018-01-15T23:59:37.458Z,66.40
